createdAt,value
2023-04-09T00:00:32.119Z,13.80
2023-04-09T00:02:59.995Z,15.57
2023-04-09T00:05:27.641Z,19.35
2023-04-09T00:07:55.526Z,12.45
2023-04-09T00:10:23.290Z,16.38
2023-04-09T00:12:51.221Z,14.57
2023-04-09T00:15:28.158Z,13.90
2023-04-09T00:17:58.270Z,16.95
2023-04-09T00:20:26.027Z,15.27
2023-04-09T00:22:54.172Z,19.42
2023-04-09T00:25:21.913Z,15.27
2023-04-09T00:27:49.671Z,15.43
2023-04-09T00:30:17.328Z,14.77
2023-04-09T00:32:48.037Z,14.52
2023-04-09T00:35:21.990Z,14.75
2023-04-09T00:37:49.914Z,13.60
2023-04-09T00:40:17.773Z,15.40
2023-04-09T00:42:45.708Z,14.43
2023-04-09T00:45:13.295Z,16.48
2023-04-09T00:47:43.114Z,16.27
2023-04-09T00:50:11.086Z,18.73
2023-04-09T00:52:38.914Z,18.38
2023-04-09T00:55:06.893Z,20.27
2023-04-09T00:57:34.687Z,16.38
2023-04-09T01:00:25.592Z,16.25
2023-04-09T01:02:54.248Z,15.63
2023-04-09T01:05:22.004Z,16.80
2023-04-09T01:08:29.324Z,15.05
2023-04-09T01:11:09.776Z,13.60
2023-04-09T01:13:55.443Z,17.55
2023-04-09T01:16:24.442Z,17.58
2023-04-09T01:19:26.290Z,19.70
2023-04-09T01:21:56.405Z,16.75
2023-04-09T01:24:57.100Z,16.75
2023-04-09T01:27:43.405Z,17.92
2023-04-09T01:30:12.656Z,17.33
2023-04-09T01:32:40.956Z,16.80
2023-04-09T01:35:09.906Z,16.20
2023-04-09T01:37:39.500Z,16.23
2023-04-09T01:40:08.205Z,17.73
2023-04-09T01:42:37.160Z,19.88
2023-04-09T01:45:06.613Z,18.58
2023-04-09T01:47:35.283Z,17.17
2023-04-09T01:50:03.573Z,16.83
2023-04-09T01:52:31.536Z,17.52
2023-04-09T01:54:59.294Z,16.45
2023-04-09T01:57:26.889Z,17.40
2023-04-09T01:59:55.239Z,21.13
2023-04-09T02:02:36.034Z,19.15
2023-04-09T02:05:08.056Z,19.37
2023-04-09T02:07:45.866Z,19.20
2023-04-09T02:10:14.323Z,19.92
2023-04-09T02:12:48.654Z,23.25
2023-04-09T02:15:16.574Z,20.00
2023-04-09T02:17:45.357Z,19.67
2023-04-09T02:20:19.835Z,18.02
2023-04-09T02:22:47.745Z,19.58
2023-04-09T02:25:15.680Z,19.50
2023-04-09T02:27:43.245Z,22.10
2023-04-09T02:30:11.446Z,20.00
2023-04-09T02:32:39.055Z,20.65
2023-04-09T02:35:07.023Z,20.55
2023-04-09T02:37:34.591Z,23.20
2023-04-09T02:40:02.086Z,22.05
2023-04-09T02:42:29.706Z,20.30
2023-04-09T02:44:57.260Z,21.27
2023-04-09T02:47:27.244Z,22.15
2023-04-09T02:49:54.813Z,21.58
2023-04-09T02:52:24.449Z,22.27
2023-04-09T02:54:53.236Z,23.52
2023-04-09T02:57:20.827Z,21.20
2023-04-09T02:59:48.361Z,21.10
2023-04-09T03:02:16.208Z,24.63
2023-04-09T03:04:43.826Z,22.35
2023-04-09T03:07:11.431Z,22.40
2023-04-09T03:09:39.052Z,22.85
2023-04-09T03:12:06.700Z,22.35
2023-04-09T03:14:35.263Z,22.80
2023-04-09T03:17:03.198Z,24.67
2023-04-09T03:19:31.518Z,22.80
2023-04-09T03:21:59.206Z,21.92
2023-04-09T03:24:29.072Z,26.58
2023-04-09T03:27:01.608Z,24.10
2023-04-09T03:29:30.778Z,21.35
2023-04-09T03:31:59.597Z,28.45
2023-04-09T03:34:27.508Z,25.55
2023-04-09T03:36:57.696Z,23.15
2023-04-09T03:39:31.675Z,22.60
2023-04-09T03:41:59.396Z,25.65
2023-04-09T03:44:31.328Z,24.05
2023-04-09T03:47:22.074Z,24.83
2023-04-09T03:49:50.630Z,23.98
2023-04-09T03:52:23.613Z,23.83
2023-04-09T03:55:03.431Z,23.98
2023-04-09T03:57:31.198Z,25.83
2023-04-09T03:59:59.314Z,24.65
2023-04-09T04:02:27.571Z,26.38
2023-04-09T04:05:02.672Z,26.45
2023-04-09T04:07:35.413Z,28.05
2023-04-09T04:10:09.748Z,28.10
2023-04-09T04:12:38.965Z,26.30
2023-04-09T04:15:14.842Z,31.75
2023-04-09T04:17:47.255Z,27.38
2023-04-09T04:20:26.650Z,30.65
2023-04-09T04:23:05.555Z,29.95
2023-04-09T04:25:35.112Z,32.58
2023-04-09T04:28:03.228Z,24.58
2023-04-09T04:30:40.946Z,25.40
2023-04-09T04:33:09.547Z,29.97
2023-04-09T04:35:44.492Z,28.05
2023-04-09T04:38:28.346Z,31.80
2023-04-09T04:40:57.193Z,34.53
2023-04-09T04:43:25.201Z,34.40
2023-04-09T04:45:55.697Z,32.45
2023-04-09T04:48:28.111Z,34.47
2023-04-09T04:51:00.407Z,33.72
2023-04-09T04:53:34.127Z,33.90
2023-04-09T04:56:14.634Z,34.60
2023-04-09T04:58:52.491Z,38.92
2023-04-09T05:01:21.633Z,37.55
2023-04-09T05:03:49.494Z,37.03
2023-04-09T05:09:01.603Z,36.38
2023-04-09T05:11:37.496Z,37.60
2023-04-09T05:14:09.512Z,40.08
2023-04-09T05:16:37.379Z,41.75
2023-04-09T05:19:06.906Z,41.92
2023-04-09T05:21:34.701Z,39.97
2023-04-09T05:24:03.565Z,41.70
2023-04-09T05:26:33.254Z,40.28
2023-04-09T05:29:00.866Z,40.63
2023-04-09T05:31:28.452Z,52.65
2023-04-09T05:34:00.861Z,45.88
2023-04-09T05:36:38.913Z,51.85
2023-04-09T05:39:06.583Z,55.38
2023-04-09T05:41:34.169Z,50.95
2023-04-09T05:44:19.740Z,56.03
2023-04-09T05:46:47.535Z,56.75
2023-04-09T05:49:18.626Z,58.45
2023-04-09T05:51:50.535Z,60.13
2023-04-09T05:54:26.070Z,56.30
2023-04-09T05:56:53.732Z,60.33
2023-04-09T05:59:22.742Z,58.58
2023-04-09T06:01:50.623Z,62.20
2023-04-09T06:04:18.483Z,54.90
2023-04-09T06:06:47.106Z,58.10
2023-04-09T06:09:15.160Z,59.85
2023-04-09T06:11:42.718Z,57.33
2023-04-09T06:14:12.355Z,52.97
2023-04-09T06:16:40.231Z,53.60
2023-04-09T06:19:07.776Z,52.38
2023-04-09T06:21:35.430Z,54.15
2023-04-09T06:24:02.941Z,63.10
2023-04-09T06:26:30.652Z,58.15
2023-04-09T06:28:58.249Z,57.10
2023-04-09T06:31:25.886Z,54.25
2023-04-09T06:33:53.572Z,51.97
2023-04-09T06:36:21.501Z,49.28
2023-04-09T06:38:49.120Z,50.47
2023-04-09T06:41:16.725Z,47.85
2023-04-09T06:43:44.224Z,46.67
2023-04-09T06:46:12.050Z,52.70
2023-04-09T06:48:39.672Z,47.63
2023-04-09T06:51:07.660Z,51.25
2023-04-09T06:53:35.795Z,51.05
2023-04-09T06:56:03.526Z,47.22
2023-04-09T06:58:31.243Z,51.42
2023-04-09T07:03:28.149Z,52.17
2023-04-09T07:05:56.596Z,54.45
2023-04-09T07:08:24.472Z,49.08
2023-04-09T07:10:52.056Z,44.30
2023-04-09T07:13:19.646Z,48.85
2023-04-09T07:15:47.369Z,44.30
2023-04-09T07:18:15.084Z,49.17
2023-04-09T07:20:42.680Z,44.47
2023-04-09T07:23:10.475Z,42.95
2023-04-09T07:25:38.135Z,43.53
2023-04-09T07:28:05.863Z,40.83
2023-04-09T07:30:33.396Z,41.28
2023-04-09T07:33:01.048Z,39.13
2023-04-09T07:35:28.677Z,36.92
2023-04-09T07:37:56.164Z,38.05
2023-04-09T07:40:23.750Z,36.30
2023-04-09T07:42:51.258Z,32.65
2023-04-09T07:45:18.949Z,33.63
2023-04-09T07:47:46.564Z,33.47
2023-04-09T07:50:14.221Z,33.28
2023-04-09T07:52:42.010Z,38.90
2023-04-09T07:55:10.135Z,32.92
2023-04-09T07:57:37.655Z,34.45
2023-04-09T08:00:06.846Z,39.45
2023-04-09T08:02:40.910Z,39.05
2023-04-09T08:05:09.222Z,36.00
2023-04-09T08:07:36.928Z,37.55
2023-04-09T08:10:05.971Z,37.08
2023-04-09T08:12:33.990Z,40.20
2023-04-09T08:15:03.694Z,41.33
2023-04-09T08:17:31.280Z,42.38
2023-04-09T08:19:58.977Z,43.78
2023-04-09T08:22:26.993Z,44.38
2023-04-09T08:24:56.340Z,44.53
2023-04-09T08:27:23.921Z,46.58
2023-04-09T08:29:51.877Z,46.45
2023-04-09T08:32:19.537Z,45.58
2023-04-09T08:34:47.306Z,46.35
2023-04-09T08:37:14.925Z,47.25
2023-04-09T08:39:42.646Z,51.65
2023-04-09T08:42:12.594Z,45.03
2023-04-09T08:44:41.024Z,46.50
2023-04-09T08:47:12.045Z,46.47
2023-04-09T08:49:41.225Z,49.03
2023-04-09T08:52:08.921Z,49.03
2023-04-09T08:54:36.721Z,41.63
2023-04-09T08:57:07.589Z,42.08
2023-04-09T08:59:37.289Z,47.25
2023-04-09T09:02:12.117Z,41.22
2023-04-09T09:04:50.935Z,43.50
2023-04-09T09:07:18.521Z,43.50
2023-04-09T09:09:53.312Z,41.25
2023-04-09T09:12:38.242Z,36.30
2023-04-09T09:15:27.500Z,42.83
2023-04-09T09:17:59.645Z,39.05
2023-04-09T09:20:27.908Z,42.85
2023-04-09T09:22:56.802Z,39.65
2023-04-09T09:25:26.064Z,42.33
2023-04-09T09:27:54.567Z,41.45
2023-04-09T09:30:24.143Z,37.95
2023-04-09T09:33:04.799Z,36.95
2023-04-09T09:35:50.993Z,36.38
2023-04-09T09:38:18.838Z,37.22
2023-04-09T09:40:47.358Z,34.83
2023-04-09T09:43:15.466Z,35.25
2023-04-09T09:45:44.107Z,32.88
2023-04-09T09:48:12.884Z,34.25
2023-04-09T09:50:44.871Z,37.63
2023-04-09T09:53:14.205Z,35.88
2023-04-09T09:55:48.861Z,33.88
2023-04-09T09:58:31.998Z,32.63
2023-04-09T10:01:01.402Z,33.67
2023-04-09T10:03:32.163Z,31.98
2023-04-09T10:06:02.938Z,32.35
2023-04-09T10:08:33.419Z,33.13
2023-04-09T10:11:05.930Z,29.88
2023-04-09T10:13:40.278Z,32.20
2023-04-09T10:16:09.524Z,33.25
2023-04-09T10:18:37.310Z,34.08
2023-04-09T10:21:27.282Z,33.70
2023-04-09T10:23:55.498Z,29.92
2023-04-09T10:26:27.822Z,31.60
2023-04-09T10:29:08.645Z,30.20
2023-04-09T10:31:49.957Z,28.65
2023-04-09T10:34:27.048Z,33.05
2023-04-09T10:36:58.601Z,29.48
2023-04-09T10:41:57.210Z,27.35
2023-04-09T10:44:38.096Z,30.95
2023-04-09T10:47:06.289Z,29.20
2023-04-09T10:49:39.249Z,30.27
2023-04-09T10:52:12.013Z,29.35
2023-04-09T10:54:45.565Z,26.52
2023-04-09T10:57:17.997Z,30.67
2023-04-09T10:59:51.160Z,29.42
2023-04-09T11:02:36.868Z,30.77
2023-04-09T11:05:26.500Z,31.83
2023-04-09T11:07:57.335Z,28.45
2023-04-09T11:10:24.956Z,28.10
2023-04-09T11:12:53.825Z,31.00
2023-04-09T11:15:21.798Z,30.65
2023-04-09T11:17:50.383Z,31.35
2023-04-09T11:20:21.547Z,27.85
2023-04-09T11:22:54.188Z,28.63
2023-04-09T11:25:27.622Z,27.33
2023-04-09T11:27:55.249Z,28.95
2023-04-09T11:30:23.039Z,27.70
2023-04-09T11:32:51.250Z,26.63
2023-04-09T11:35:20.575Z,27.80
2023-04-09T11:37:50.108Z,29.33
2023-04-09T11:40:23.106Z,32.50
2023-04-09T11:42:52.697Z,28.48
2023-04-09T11:45:23.391Z,26.63
2023-04-09T11:47:51.791Z,26.92
2023-04-09T11:50:20.365Z,24.85
2023-04-09T11:52:48.653Z,25.75
2023-04-09T11:55:29.612Z,26.42
2023-04-09T11:58:01.060Z,26.63
2023-04-09T12:00:29.477Z,24.20
2023-04-09T12:03:04.990Z,25.83
2023-04-09T12:05:34.646Z,29.08
2023-04-09T12:08:05.497Z,25.90
2023-04-09T12:10:35.466Z,23.65
2023-04-09T12:13:06.153Z,24.23
2023-04-09T12:15:36.222Z,24.00
2023-04-09T12:18:07.604Z,23.48
2023-04-09T12:20:47.422Z,21.95
2023-04-09T12:23:16.373Z,22.67
2023-04-09T12:25:45.514Z,22.30
2023-04-09T12:28:15.904Z,23.63
2023-04-09T12:30:44.512Z,25.03
2023-04-09T12:33:12.158Z,23.85
2023-04-09T12:35:39.858Z,23.35
2023-04-09T12:38:07.575Z,23.42
2023-04-09T12:40:38.680Z,20.60
2023-04-09T12:43:06.297Z,21.27
2023-04-09T12:45:33.923Z,22.65
2023-04-09T12:48:01.618Z,22.45
2023-04-09T12:50:29.268Z,22.00
2023-04-09T12:52:56.853Z,21.65
2023-04-09T12:55:24.425Z,21.35
2023-04-09T12:57:52.082Z,23.17
2023-04-09T13:00:19.745Z,19.70
2023-04-09T13:02:47.651Z,20.48
2023-04-09T13:05:15.338Z,20.95
2023-04-09T13:07:43.569Z,21.20
2023-04-09T13:10:11.489Z,20.63
2023-04-09T13:12:39.211Z,22.02
2023-04-09T13:15:07.328Z,19.13
2023-04-09T13:17:34.993Z,18.20
2023-04-09T13:20:03.380Z,19.38
2023-04-09T13:22:31.084Z,21.65
2023-04-09T13:24:58.810Z,19.13
2023-04-09T13:27:26.550Z,22.50
2023-04-09T13:29:54.090Z,19.92
2023-04-09T13:32:23.317Z,20.02
2023-04-09T13:34:51.278Z,23.77
2023-04-09T13:37:18.899Z,20.60
2023-04-09T13:39:46.490Z,22.15
2023-04-09T13:42:14.670Z,22.67
2023-04-09T13:44:45.019Z,22.85
2023-04-09T13:47:14.238Z,22.08
2023-04-09T13:49:42.931Z,22.05
2023-04-09T13:52:10.880Z,22.13
2023-04-09T13:54:38.422Z,23.23
2023-04-09T13:57:06.007Z,24.02
2023-04-09T13:59:33.600Z,20.25
2023-04-09T14:02:01.278Z,24.42
2023-04-09T14:04:28.969Z,21.85
2023-04-09T14:06:57.869Z,21.98
2023-04-09T14:09:25.507Z,17.80
2023-04-09T14:11:54.862Z,18.90
2023-04-09T14:14:22.477Z,22.38
2023-04-09T14:16:50.489Z,21.92
2023-04-09T14:19:18.092Z,23.63
2023-04-09T14:21:45.716Z,22.85
2023-04-09T14:24:13.245Z,21.98
2023-04-09T14:26:40.977Z,20.98
2023-04-09T14:29:08.529Z,24.48
2023-04-09T14:31:36.196Z,23.33
2023-04-09T14:34:03.753Z,29.15
2023-04-09T14:36:32.278Z,30.08
2023-04-09T14:39:00.210Z,24.13
2023-04-09T14:41:28.073Z,26.50
2023-04-09T14:43:55.746Z,25.27
2023-04-09T14:46:23.321Z,26.75
2023-04-09T14:48:51.148Z,24.00
2023-04-09T14:51:18.878Z,26.00
2023-04-09T14:53:46.479Z,24.25
2023-04-09T14:56:14.124Z,24.85
2023-04-09T14:58:41.676Z,26.52
2023-04-09T15:01:09.307Z,25.45
2023-04-09T15:03:37.022Z,24.63
2023-04-09T15:06:05.081Z,26.50
2023-04-09T15:08:32.602Z,24.23
2023-04-09T15:11:00.280Z,24.75
2023-04-09T15:13:27.819Z,26.13
2023-04-09T15:15:55.567Z,30.13
2023-04-09T15:18:23.085Z,25.00
2023-04-09T15:20:51.261Z,26.35
2023-04-09T15:23:18.797Z,27.20
2023-04-09T15:25:46.835Z,24.80
2023-04-09T15:28:14.623Z,25.08
2023-04-09T15:30:42.325Z,22.73
2023-04-09T15:33:09.880Z,29.17
2023-04-09T15:35:37.803Z,26.10
2023-04-09T15:38:05.434Z,27.77
2023-04-09T15:40:33.077Z,24.38
2023-04-09T15:43:00.687Z,23.15
2023-04-09T15:45:28.314Z,27.30
2023-04-09T15:47:56.110Z,23.15
2023-04-09T15:50:23.791Z,23.63
2023-04-09T15:52:51.322Z,23.48
2023-04-09T15:55:18.875Z,23.33
2023-04-09T15:57:46.952Z,24.95
2023-04-09T16:00:15.924Z,24.17
2023-04-09T16:02:43.483Z,23.27
2023-04-09T16:05:11.260Z,24.17
2023-04-09T16:07:39.741Z,26.05
2023-04-09T16:10:07.878Z,20.90
2023-04-09T16:12:35.589Z,27.88
2023-04-09T16:15:03.446Z,24.92
2023-04-09T16:17:31.141Z,21.52
2023-04-09T16:19:58.861Z,27.52
2023-04-09T16:22:26.657Z,23.60
2023-04-09T16:24:54.300Z,23.50
2023-04-09T16:27:22.170Z,23.95
2023-04-09T16:29:50.182Z,22.48
2023-04-09T16:32:17.734Z,21.45
2023-04-09T16:34:45.481Z,20.17
2023-04-09T16:37:13.213Z,20.02
2023-04-09T16:39:40.870Z,20.80
2023-04-09T16:42:08.472Z,19.95
2023-04-09T16:44:36.015Z,19.88
2023-04-09T16:47:05.169Z,16.75
2023-04-09T16:49:32.822Z,20.55
2023-04-09T16:52:00.532Z,18.55
2023-04-09T16:54:28.132Z,22.45
2023-04-09T16:56:57.300Z,16.50
2023-04-09T16:59:25.024Z,17.08
2023-04-09T17:01:52.861Z,19.33
2023-04-09T17:04:21.322Z,15.52
2023-04-09T17:06:48.990Z,16.92
2023-04-09T17:09:16.770Z,17.63
2023-04-09T17:11:44.793Z,17.02
2023-04-09T17:14:12.530Z,19.23
2023-04-09T17:16:40.548Z,18.27
2023-04-09T17:19:09.255Z,18.20
2023-04-09T17:21:38.234Z,15.68
2023-04-09T17:24:06.834Z,18.13
2023-04-09T17:26:35.450Z,13.77
2023-04-09T17:29:03.819Z,14.85
2023-04-09T17:31:31.781Z,14.25
2023-04-09T17:33:59.634Z,13.30
2023-04-09T17:36:27.780Z,13.35
2023-04-09T17:38:56.635Z,11.05
2023-04-09T17:41:24.510Z,12.18
2023-04-09T17:43:52.243Z,13.45
2023-04-09T17:46:19.844Z,10.43
2023-04-09T17:48:48.007Z,14.55
2023-04-09T17:51:18.649Z,12.13
2023-04-09T17:53:47.556Z,13.43
2023-04-09T17:56:18.427Z,14.05
2023-04-09T17:58:46.964Z,14.15
2023-04-09T18:01:14.855Z,13.27
2023-04-09T18:03:43.267Z,11.82
2023-04-09T18:06:11.598Z,13.77
2023-04-09T18:08:41.754Z,13.98
2023-04-09T18:11:13.319Z,11.35
2023-04-09T18:13:41.628Z,10.30
2023-04-09T18:16:12.524Z,11.98
2023-04-09T18:18:40.902Z,10.65
2023-04-09T18:21:09.119Z,15.57
2023-04-09T18:23:36.879Z,14.32
2023-04-09T18:26:04.625Z,11.70
2023-04-09T18:28:33.916Z,12.68
2023-04-09T18:31:02.677Z,15.23
2023-04-09T18:33:32.016Z,17.38
2023-04-09T18:36:03.009Z,11.05
2023-04-09T18:38:33.133Z,14.23
2023-04-09T18:41:04.132Z,10.85
2023-04-09T18:43:32.229Z,11.10
2023-04-09T18:45:59.968Z,10.77
2023-04-09T18:48:28.072Z,11.55
2023-04-09T18:50:55.927Z,11.25
2023-04-09T18:53:25.109Z,12.20
2023-04-09T18:55:52.948Z,13.43
2023-04-09T18:58:21.496Z,15.35
2023-04-09T19:00:51.781Z,13.13
2023-04-09T19:03:19.823Z,13.68
2023-04-09T19:05:48.458Z,13.63
2023-04-09T19:08:17.552Z,13.15
2023-04-09T19:10:47.558Z,15.23
2023-04-09T19:13:15.598Z,12.13
2023-04-09T19:15:43.396Z,15.85
2023-04-09T19:18:11.288Z,14.40
2023-04-09T19:20:38.934Z,13.13
2023-04-09T19:23:06.771Z,12.55
2023-04-09T19:25:34.315Z,15.13
2023-04-09T19:28:02.098Z,11.50
2023-04-09T19:30:29.733Z,12.85
2023-04-09T19:32:57.450Z,12.02
2023-04-09T19:35:25.567Z,12.65
2023-04-09T19:37:53.891Z,13.48
2023-04-09T19:40:21.865Z,13.00
2023-04-09T19:42:50.135Z,11.68
2023-04-09T19:45:18.523Z,12.68
2023-04-09T19:47:46.936Z,12.45
2023-04-09T19:50:15.711Z,10.38
2023-04-09T19:52:43.872Z,10.32
2023-04-09T19:55:12.457Z,10.07
2023-04-09T19:57:43.979Z,9.88
2023-04-09T20:00:12.902Z,13.98
2023-04-09T20:02:41.551Z,14.20
2023-04-09T20:05:10.587Z,15.80
2023-04-09T20:07:38.605Z,11.43
2023-04-09T20:10:06.927Z,12.07
2023-04-09T20:12:35.145Z,13.60
2023-04-09T20:15:03.624Z,11.93
2023-04-09T20:17:32.273Z,9.45
2023-04-09T20:20:00.642Z,14.00
2023-04-09T20:22:29.133Z,11.77
2023-04-09T20:24:56.874Z,15.07
2023-04-09T20:27:24.942Z,13.10
2023-04-09T20:29:53.503Z,13.07
2023-04-09T20:32:21.427Z,11.85
2023-04-09T20:34:49.774Z,13.80
2023-04-09T20:37:17.756Z,11.82
2023-04-09T20:39:46.744Z,14.20
2023-04-09T20:42:14.350Z,14.73
2023-04-09T20:44:43.340Z,10.43
2023-04-09T20:47:12.074Z,9.98
2023-04-09T20:49:40.068Z,13.25
2023-04-09T20:52:09.359Z,11.43
2023-04-09T20:54:37.555Z,13.95
2023-04-09T20:57:05.996Z,15.52
2023-04-09T20:59:34.004Z,11.77
2023-04-09T21:02:01.931Z,15.77
2023-04-09T21:04:30.409Z,11.75
2023-04-09T21:06:58.635Z,14.32
2023-04-09T21:09:26.350Z,14.77
2023-04-09T21:11:54.081Z,13.65
2023-04-09T21:14:21.709Z,11.43
2023-04-09T21:16:49.554Z,13.45
2023-04-09T21:19:17.143Z,15.13
2023-04-09T21:21:44.963Z,14.63
2023-04-09T21:24:13.039Z,13.90
2023-04-09T21:26:51.192Z,12.52
2023-04-09T21:29:23.657Z,14.75
2023-04-09T21:31:51.511Z,13.90
2023-04-09T21:34:19.716Z,17.50
2023-04-09T21:36:47.524Z,15.93
2023-04-09T21:39:15.476Z,14.55
2023-04-09T21:41:43.518Z,14.95
2023-04-09T21:44:11.796Z,14.90
2023-04-09T21:46:42.422Z,19.05
2023-04-09T21:49:10.521Z,16.67
2023-04-09T21:51:38.818Z,17.77
2023-04-09T21:54:09.404Z,15.77
2023-04-09T21:56:38.218Z,17.95
2023-04-09T21:59:06.265Z,17.45
2023-04-09T22:01:35.125Z,20.20
2023-04-09T22:04:03.185Z,17.33
2023-04-09T22:06:31.225Z,18.40
2023-04-09T22:08:59.076Z,19.52
2023-04-09T22:11:28.567Z,19.48
2023-04-09T22:13:57.489Z,22.02
2023-04-09T22:16:26.285Z,18.42
2023-04-09T22:18:55.008Z,19.23
2023-04-09T22:21:22.971Z,16.52
2023-04-09T22:23:50.632Z,22.00
2023-04-09T22:26:18.336Z,19.35
2023-04-09T22:28:45.935Z,23.20
2023-04-09T22:31:13.820Z,19.20
2023-04-09T22:33:41.496Z,23.42
2023-04-09T22:36:09.251Z,22.23
2023-04-09T22:38:36.996Z,28.50
2023-04-09T22:41:05.177Z,22.60
2023-04-09T22:43:32.706Z,21.38
2023-04-09T22:46:00.584Z,22.25
2023-04-09T22:48:29.105Z,21.83
2023-04-09T22:50:57.817Z,25.05
2023-04-09T22:53:25.493Z,23.15
2023-04-09T22:55:54.904Z,24.55
2023-04-09T22:58:22.650Z,21.02
2023-04-09T23:00:50.875Z,24.23
2023-04-09T23:03:18.749Z,21.17
2023-04-09T23:05:46.687Z,23.10
2023-04-09T23:08:14.227Z,20.90
2023-04-09T23:10:41.784Z,22.88
2023-04-09T23:13:11.597Z,21.13
2023-04-09T23:15:39.534Z,23.42
2023-04-09T23:18:07.135Z,24.83
2023-04-09T23:20:36.500Z,25.50
2023-04-09T23:23:04.102Z,22.45
2023-04-09T23:25:31.764Z,23.42
2023-04-09T23:27:59.277Z,22.58
2023-04-09T23:30:27.216Z,19.55
2023-04-09T23:32:57.405Z,24.08
2023-04-09T23:35:25.430Z,23.35
2023-04-09T23:37:53.038Z,25.92
2023-04-09T23:40:21.358Z,27.20
2023-04-09T23:42:50.266Z,21.08
2023-04-09T23:45:17.920Z,23.05
2023-04-09T23:47:46.006Z,24.30
2023-04-09T23:50:13.800Z,28.23
2023-04-09T23:52:48.542Z,26.63
2023-04-09T23:55:16.658Z,24.33
2023-04-09T23:57:44.939Z,23.85
